sensor_id;sensor_type;location;lat;lon;timestamp;P1;durP1;ratioP1;P2;durP2;ratioP2
22904;SDS011;11619;50.140;8.518;2024-03-29T00:01:49;2.67;;;1.30;;
22904;SDS011;11619;50.140;8.518;2024-03-29T00:08:15;1.75;;;1.10;;
22904;SDS011;11619;50.140;8.518;2024-03-29T00:11:50;2.97;;;1.35;;
22904;SDS011;11619;50.140;8.518;2024-03-29T00:32:55;2.17;;;1.90;;
22904;SDS011;11619;50.140;8.518;2024-03-29T00:36:23;5.25;;;2.17;;
22904;SDS011;11619;50.140;8.518;2024-03-29T00:38:48;1.90;;;1.55;;
22904;SDS011;11619;50.140;8.518;2024-03-29T00:41:14;4.18;;;2.08;;
22904;SDS011;11619;50.140;8.518;2024-03-29T00:43:39;4.88;;;2.00;;
22904;SDS011;11619;50.140;8.518;2024-03-29T00:46:05;4.07;;;1.90;;
22904;SDS011;11619;50.140;8.518;2024-03-29T00:48:31;4.07;;;1.70;;
22904;SDS011;11619;50.140;8.518;2024-03-29T00:50:56;4.72;;;1.88;;
22904;SDS011;11619;50.140;8.518;2024-03-29T00:53:22;2.17;;;1.60;;
22904;SDS011;11619;50.140;8.518;2024-03-29T00:55:47;3.78;;;1.70;;
22904;SDS011;11619;50.140;8.518;2024-03-29T00:58:13;4.03;;;1.73;;
22904;SDS011;11619;50.140;8.518;2024-03-29T01:00:38;3.53;;;1.60;;
22904;SDS011;11619;50.140;8.518;2024-03-29T01:03:04;3.38;;;1.63;;
22904;SDS011;11619;50.140;8.518;2024-03-29T01:05:30;3.25;;;1.80;;
22904;SDS011;11619;50.140;8.518;2024-03-29T01:07:55;3.03;;;1.70;;
22904;SDS011;11619;50.140;8.518;2024-03-29T01:10:21;2.58;;;1.52;;
22904;SDS011;11619;50.140;8.518;2024-03-29T01:12:47;4.82;;;1.60;;
22904;SDS011;11619;50.140;8.518;2024-03-29T01:15:13;6.30;;;1.77;;
22904;SDS011;11619;50.140;8.518;2024-03-29T01:17:38;3.58;;;1.92;;
22904;SDS011;11619;50.140;8.518;2024-03-29T01:20:04;5.50;;;1.75;;
22904;SDS011;11619;50.140;8.518;2024-03-29T01:22:30;4.35;;;1.73;;
22904;SDS011;11619;50.140;8.518;2024-03-29T01:24:55;5.68;;;1.92;;
22904;SDS011;11619;50.140;8.518;2024-03-29T01:27:21;3.42;;;1.55;;
22904;SDS011;11619;50.140;8.518;2024-03-29T01:29:47;3.13;;;1.55;;
22904;SDS011;11619;50.140;8.518;2024-03-29T01:32:12;4.60;;;2.20;;
22904;SDS011;11619;50.140;8.518;2024-03-29T01:34:38;6.55;;;2.10;;
22904;SDS011;11619;50.140;8.518;2024-03-29T01:37:03;2.22;;;1.63;;
22904;SDS011;11619;50.140;8.518;2024-03-29T01:39:29;5.10;;;2.00;;
22904;SDS011;11619;50.140;8.518;2024-03-29T01:41:56;4.53;;;2.13;;
22904;SDS011;11619;50.140;8.518;2024-03-29T01:44:22;4.65;;;2.20;;
22904;SDS011;11619;50.140;8.518;2024-03-29T01:46:47;3.50;;;1.80;;
22904;SDS011;11619;50.140;8.518;2024-03-29T01:49:13;5.45;;;1.77;;
22904;SDS011;11619;50.140;8.518;2024-03-29T01:51:39;3.83;;;1.88;;
22904;SDS011;11619;50.140;8.518;2024-03-29T01:54:05;3.97;;;1.65;;
22904;SDS011;11619;50.140;8.518;2024-03-29T01:56:32;3.17;;;1.60;;
22904;SDS011;11619;50.140;8.518;2024-03-29T01:58:57;4.07;;;1.50;;
22904;SDS011;11619;50.140;8.518;2024-03-29T02:01:24;7.10;;;2.20;;
22904;SDS011;11619;50.140;8.518;2024-03-29T02:03:50;3.83;;;1.90;;
22904;SDS011;11619;50.140;8.518;2024-03-29T02:06:16;3.22;;;1.45;;
22904;SDS011;11619;50.140;8.518;2024-03-29T02:08:42;5.10;;;1.90;;
22904;SDS011;11619;50.140;8.518;2024-03-29T02:11:07;5.82;;;2.20;;
22904;SDS011;11619;50.140;8.518;2024-03-29T02:13:33;3.28;;;1.73;;
22904;SDS011;11619;50.140;8.518;2024-03-29T02:15:59;3.45;;;1.88;;
22904;SDS011;11619;50.140;8.518;2024-03-29T02:18:24;3.88;;;1.60;;
22904;SDS011;11619;50.140;8.518;2024-03-29T02:20:50;2.97;;;1.52;;
22904;SDS011;11619;50.140;8.518;2024-03-29T02:23:18;4.57;;;2.00;;
22904;SDS011;11619;50.140;8.518;2024-03-29T02:25:45;2.85;;;1.65;;
22904;SDS011;11619;50.140;8.518;2024-03-29T02:28:11;5.18;;;1.70;;
22904;SDS011;11619;50.140;8.518;2024-03-29T02:30:38;4.35;;;1.67;;
22904;SDS011;11619;50.140;8.518;2024-03-29T02:33:03;5.03;;;1.55;;
22904;SDS011;11619;50.140;8.518;2024-03-29T02:35:29;3.95;;;1.65;;
22904;SDS011;11619;50.140;8.518;2024-03-29T02:37:55;5.90;;;1.48;;
22904;SDS011;11619;50.140;8.518;2024-03-29T02:40:20;2.60;;;1.60;;
22904;SDS011;11619;50.140;8.518;2024-03-29T02:42:49;4.05;;;1.60;;
22904;SDS011;11619;50.140;8.518;2024-03-29T02:45:15;4.32;;;1.77;;
22904;SDS011;11619;50.140;8.518;2024-03-29T02:47:44;3.40;;;1.55;;
22904;SDS011;11619;50.140;8.518;2024-03-29T02:50:10;4.38;;;1.52;;
22904;SDS011;11619;50.140;8.518;2024-03-29T02:52:40;5.15;;;1.60;;
22904;SDS011;11619;50.140;8.518;2024-03-29T02:55:06;5.78;;;1.75;;
22904;SDS011;11619;50.140;8.518;2024-03-29T02:57:32;3.08;;;1.42;;
22904;SDS011;11619;50.140;8.518;2024-03-29T02:59:59;6.03;;;1.95;;
22904;SDS011;11619;50.140;8.518;2024-03-29T03:02:24;7.57;;;2.05;;
22904;SDS011;11619;50.140;8.518;2024-03-29T03:04:50;3.08;;;1.50;;
22904;SDS011;11619;50.140;8.518;2024-03-29T03:07:15;3.78;;;1.63;;
22904;SDS011;11619;50.140;8.518;2024-03-29T03:09:59;1.70;;;1.38;;
22904;SDS011;11619;50.140;8.518;2024-03-29T03:12:43;4.90;;;1.40;;
22904;SDS011;11619;50.140;8.518;2024-03-29T03:15:09;3.20;;;1.73;;
22904;SDS011;11619;50.140;8.518;2024-03-29T03:17:34;6.03;;;1.60;;
22904;SDS011;11619;50.140;8.518;2024-03-29T03:20:00;3.47;;;1.30;;
22904;SDS011;11619;50.140;8.518;2024-03-29T03:22:25;2.15;;;1.05;;
22904;SDS011;11619;50.140;8.518;2024-03-29T03:24:51;4.65;;;1.40;;
22904;SDS011;11619;50.140;8.518;2024-03-29T03:27:18;4.07;;;1.40;;
22904;SDS011;11619;50.140;8.518;2024-03-29T03:29:43;2.72;;;1.60;;
22904;SDS011;11619;50.140;8.518;2024-03-29T03:32:09;3.90;;;1.63;;
22904;SDS011;11619;50.140;8.518;2024-03-29T03:34:34;2.88;;;1.40;;
22904;SDS011;11619;50.140;8.518;2024-03-29T03:37:00;3.22;;;1.65;;
22904;SDS011;11619;50.140;8.518;2024-03-29T03:39:26;2.25;;;1.20;;
22904;SDS011;11619;50.140;8.518;2024-03-29T03:41:52;4.50;;;1.58;;
22904;SDS011;11619;50.140;8.518;2024-03-29T03:44:17;4.28;;;1.23;;
22904;SDS011;11619;50.140;8.518;2024-03-29T03:46:43;3.95;;;1.27;;
22904;SDS011;11619;50.140;8.518;2024-03-29T03:49:09;2.17;;;1.48;;
22904;SDS011;11619;50.140;8.518;2024-03-29T03:51:34;3.15;;;1.42;;
22904;SDS011;11619;50.140;8.518;2024-03-29T03:54:00;3.58;;;1.20;;
22904;SDS011;11619;50.140;8.518;2024-03-29T03:56:25;3.80;;;1.85;;
22904;SDS011;11619;50.140;8.518;2024-03-29T03:58:51;2.47;;;1.42;;
22904;SDS011;11619;50.140;8.518;2024-03-29T04:01:17;5.10;;;1.40;;
22904;SDS011;11619;50.140;8.518;2024-03-29T04:03:42;2.85;;;1.55;;
22904;SDS011;11619;50.140;8.518;2024-03-29T04:06:08;2.85;;;1.40;;
22904;SDS011;11619;50.140;8.518;2024-03-29T04:08:33;4.85;;;1.33;;
22904;SDS011;11619;50.140;8.518;2024-03-29T04:11:02;2.85;;;1.40;;
22904;SDS011;11619;50.140;8.518;2024-03-29T04:13:28;2.10;;;1.20;;
22904;SDS011;11619;50.140;8.518;2024-03-29T04:16:00;2.80;;;1.42;;
22904;SDS011;11619;50.140;8.518;2024-03-29T04:18:26;2.67;;;1.25;;
22904;SDS011;11619;50.140;8.518;2024-03-29T04:21:01;3.17;;;1.40;;
22904;SDS011;11619;50.140;8.518;2024-03-29T04:23:28;1.55;;;1.00;;
22904;SDS011;11619;50.140;8.518;2024-03-29T04:25:54;4.75;;;1.48;;
22904;SDS011;11619;50.140;8.518;2024-03-29T04:28:20;2.35;;;1.20;;
22904;SDS011;11619;50.140;8.518;2024-03-29T04:30:55;5.03;;;1.27;;
22904;SDS011;11619;50.140;8.518;2024-03-29T04:33:22;2.47;;;1.48;;
22904;SDS011;11619;50.140;8.518;2024-03-29T04:36:01;3.67;;;1.60;;
22904;SDS011;11619;50.140;8.518;2024-03-29T04:38:27;2.95;;;1.50;;
22904;SDS011;11619;50.140;8.518;2024-03-29T04:40:54;2.17;;;1.33;;
22904;SDS011;11619;50.140;8.518;2024-03-29T04:43:21;4.45;;;1.83;;
22904;SDS011;11619;50.140;8.518;2024-03-29T04:45:47;2.42;;;1.30;;
22904;SDS011;11619;50.140;8.518;2024-03-29T04:48:13;4.13;;;1.30;;
22904;SDS011;11619;50.140;8.518;2024-03-29T04:50:39;2.13;;;1.38;;
22904;SDS011;11619;50.140;8.518;2024-03-29T04:53:04;5.00;;;1.42;;
22904;SDS011;11619;50.140;8.518;2024-03-29T04:55:30;2.03;;;1.30;;
22904;SDS011;11619;50.140;8.518;2024-03-29T04:57:56;2.45;;;1.35;;
22904;SDS011;11619;50.140;8.518;2024-03-29T05:00:22;4.80;;;1.50;;
22904;SDS011;11619;50.140;8.518;2024-03-29T05:02:47;4.25;;;1.40;;
22904;SDS011;11619;50.140;8.518;2024-03-29T05:05:13;4.13;;;1.63;;
22904;SDS011;11619;50.140;8.518;2024-03-29T05:07:38;2.97;;;1.30;;
22904;SDS011;11619;50.140;8.518;2024-03-29T05:10:04;3.45;;;1.50;;
22904;SDS011;11619;50.140;8.518;2024-03-29T05:12:32;4.72;;;1.40;;
22904;SDS011;11619;50.140;8.518;2024-03-29T05:14:58;2.13;;;1.42;;
22904;SDS011;11619;50.140;8.518;2024-03-29T05:17:24;5.90;;;1.92;;
22904;SDS011;11619;50.140;8.518;2024-03-29T05:19:52;2.95;;;1.58;;
22904;SDS011;11619;50.140;8.518;2024-03-29T05:22:21;2.95;;;1.60;;
22904;SDS011;11619;50.140;8.518;2024-03-29T05:24:46;7.38;;;1.90;;
22904;SDS011;11619;50.140;8.518;2024-03-29T05:27:12;5.07;;;1.80;;
22904;SDS011;11619;50.140;8.518;2024-03-29T05:29:38;3.17;;;1.80;;
22904;SDS011;11619;50.140;8.518;2024-03-29T05:32:04;2.42;;;1.33;;
22904;SDS011;11619;50.140;8.518;2024-03-29T05:34:30;2.75;;;1.40;;
22904;SDS011;11619;50.140;8.518;2024-03-29T05:36:55;4.00;;;1.85;;
22904;SDS011;11619;50.140;8.518;2024-03-29T05:39:21;2.25;;;1.48;;
22904;SDS011;11619;50.140;8.518;2024-03-29T05:41:46;3.10;;;1.48;;
22904;SDS011;11619;50.140;8.518;2024-03-29T05:44:12;2.30;;;1.50;;
22904;SDS011;11619;50.140;8.518;2024-03-29T05:46:38;2.40;;;1.52;;
22904;SDS011;11619;50.140;8.518;2024-03-29T05:49:05;7.38;;;1.88;;
22904;SDS011;11619;50.140;8.518;2024-03-29T05:51:31;3.67;;;1.45;;
22904;SDS011;11619;50.140;8.518;2024-03-29T05:53:58;3.13;;;1.60;;
22904;SDS011;11619;50.140;8.518;2024-03-29T05:56:24;2.10;;;1.40;;
22904;SDS011;11619;50.140;8.518;2024-03-29T05:58:50;2.90;;;1.52;;
22904;SDS011;11619;50.140;8.518;2024-03-29T06:01:15;3.63;;;1.63;;
22904;SDS011;11619;50.140;8.518;2024-03-29T06:03:41;2.50;;;1.58;;
22904;SDS011;11619;50.140;8.518;2024-03-29T06:06:06;1.83;;;1.40;;
22904;SDS011;11619;50.140;8.518;2024-03-29T06:08:32;2.28;;;1.40;;
22904;SDS011;11619;50.140;8.518;2024-03-29T06:10:58;2.92;;;1.40;;
22904;SDS011;11619;50.140;8.518;2024-03-29T06:13:24;5.97;;;1.70;;
22904;SDS011;11619;50.140;8.518;2024-03-29T06:16:13;1.88;;;1.40;;
22904;SDS011;11619;50.140;8.518;2024-03-29T06:18:57;2.95;;;1.60;;
22904;SDS011;11619;50.140;8.518;2024-03-29T06:21:23;4.10;;;1.50;;
22904;SDS011;11619;50.140;8.518;2024-03-29T06:23:48;2.08;;;1.45;;
22904;SDS011;11619;50.140;8.518;2024-03-29T06:26:14;2.63;;;1.40;;
22904;SDS011;11619;50.140;8.518;2024-03-29T06:28:39;1.52;;;1.27;;
22904;SDS011;11619;50.140;8.518;2024-03-29T06:31:05;1.90;;;1.20;;
22904;SDS011;11619;50.140;8.518;2024-03-29T06:33:30;1.88;;;1.40;;
22904;SDS011;11619;50.140;8.518;2024-03-29T06:35:56;3.10;;;1.45;;
22904;SDS011;11619;50.140;8.518;2024-03-29T06:38:21;2.13;;;1.30;;
22904;SDS011;11619;50.140;8.518;2024-03-29T06:40:47;2.58;;;1.20;;
22904;SDS011;11619;50.140;8.518;2024-03-29T06:43:13;3.00;;;1.35;;
22904;SDS011;11619;50.140;8.518;2024-03-29T06:45:41;3.05;;;2.00;;
22904;SDS011;11619;50.140;8.518;2024-03-29T06:48:11;2.20;;;1.45;;
22904;SDS011;11619;50.140;8.518;2024-03-29T06:50:37;2.47;;;1.50;;
22904;SDS011;11619;50.140;8.518;2024-03-29T06:53:03;2.72;;;1.63;;
22904;SDS011;11619;50.140;8.518;2024-03-29T06:55:30;2.63;;;1.52;;
22904;SDS011;11619;50.140;8.518;2024-03-29T06:57:56;3.15;;;1.55;;
22904;SDS011;11619;50.140;8.518;2024-03-29T07:00:21;2.55;;;1.77;;
22904;SDS011;11619;50.140;8.518;2024-03-29T07:02:47;4.35;;;1.60;;
22904;SDS011;11619;50.140;8.518;2024-03-29T07:05:13;2.05;;;1.30;;
22904;SDS011;11619;50.140;8.518;2024-03-29T07:07:38;2.97;;;1.58;;
22904;SDS011;11619;50.140;8.518;2024-03-29T07:10:06;1.75;;;1.58;;
22904;SDS011;11619;50.140;8.518;2024-03-29T07:12:32;1.63;;;1.30;;
22904;SDS011;11619;50.140;8.518;2024-03-29T07:14:57;2.60;;;1.60;;
22904;SDS011;11619;50.140;8.518;2024-03-29T07:17:23;1.50;;;1.40;;
22904;SDS011;11619;50.140;8.518;2024-03-29T07:19:49;3.38;;;1.52;;
22904;SDS011;11619;50.140;8.518;2024-03-29T07:22:14;2.22;;;1.50;;
22904;SDS011;11619;50.140;8.518;2024-03-29T07:24:40;2.65;;;1.40;;
22904;SDS011;11619;50.140;8.518;2024-03-29T07:27:05;4.00;;;1.80;;
22904;SDS011;11619;50.140;8.518;2024-03-29T07:29:31;4.43;;;1.50;;
22904;SDS011;11619;50.140;8.518;2024-03-29T07:31:59;2.50;;;1.48;;
22904;SDS011;11619;50.140;8.518;2024-03-29T07:34:26;4.18;;;1.50;;
22904;SDS011;11619;50.140;8.518;2024-03-29T07:36:51;1.75;;;1.40;;
22904;SDS011;11619;50.140;8.518;2024-03-29T07:39:17;3.55;;;1.75;;
22904;SDS011;11619;50.140;8.518;2024-03-29T07:41:42;3.67;;;1.88;;
22904;SDS011;11619;50.140;8.518;2024-03-29T07:44:08;3.15;;;1.83;;
22904;SDS011;11619;50.140;8.518;2024-03-29T07:46:34;6.10;;;2.00;;
22904;SDS011;11619;50.140;8.518;2024-03-29T07:49:02;3.97;;;1.80;;
22904;SDS011;11619;50.140;8.518;2024-03-29T07:51:28;3.55;;;1.60;;
22904;SDS011;11619;50.140;8.518;2024-03-29T07:53:54;2.75;;;1.73;;
22904;SDS011;11619;50.140;8.518;2024-03-29T07:56:19;2.50;;;1.70;;
22904;SDS011;11619;50.140;8.518;2024-03-29T07:58:49;2.28;;;1.80;;
22904;SDS011;11619;50.140;8.518;2024-03-29T08:01:19;3.50;;;1.90;;
22904;SDS011;11619;50.140;8.518;2024-03-29T08:03:46;2.70;;;1.73;;
22904;SDS011;11619;50.140;8.518;2024-03-29T08:06:11;3.83;;;1.80;;
22904;SDS011;11619;50.140;8.518;2024-03-29T08:08:37;2.97;;;2.22;;
22904;SDS011;11619;50.140;8.518;2024-03-29T08:11:03;3.97;;;2.08;;
22904;SDS011;11619;50.140;8.518;2024-03-29T08:13:28;5.10;;;2.70;;
22904;SDS011;11619;50.140;8.518;2024-03-29T08:15:57;3.13;;;2.40;;
22904;SDS011;11619;50.140;8.518;2024-03-29T08:18:24;4.72;;;3.17;;
22904;SDS011;11619;50.140;8.518;2024-03-29T08:20:49;6.05;;;2.85;;
22904;SDS011;11619;50.140;8.518;2024-03-29T08:23:15;6.65;;;2.35;;
22904;SDS011;11619;50.140;8.518;2024-03-29T08:25:40;3.83;;;2.63;;
22904;SDS011;11619;50.140;8.518;2024-03-29T08:28:06;8.63;;;3.38;;
22904;SDS011;11619;50.140;8.518;2024-03-29T08:30:31;4.75;;;2.72;;
22904;SDS011;11619;50.140;8.518;2024-03-29T08:33:00;3.58;;;2.75;;
22904;SDS011;11619;50.140;8.518;2024-03-29T08:35:31;5.53;;;2.75;;
22904;SDS011;11619;50.140;8.518;2024-03-29T08:37:58;4.32;;;2.58;;
22904;SDS011;11619;50.140;8.518;2024-03-29T08:40:24;3.00;;;2.33;;
22904;SDS011;11619;50.140;8.518;2024-03-29T08:42:53;2.58;;;2.33;;
22904;SDS011;11619;50.140;8.518;2024-03-29T08:45:19;4.82;;;3.05;;
22904;SDS011;11619;50.140;8.518;2024-03-29T08:47:46;5.20;;;2.92;;
22904;SDS011;11619;50.140;8.518;2024-03-29T08:50:12;5.80;;;2.55;;
22904;SDS011;11619;50.140;8.518;2024-03-29T08:52:38;4.03;;;2.17;;
22904;SDS011;11619;50.140;8.518;2024-03-29T08:55:05;4.78;;;2.90;;
22904;SDS011;11619;50.140;8.518;2024-03-29T08:57:33;4.30;;;2.53;;
22904;SDS011;11619;50.140;8.518;2024-03-29T08:59:59;3.13;;;2.60;;
22904;SDS011;11619;50.140;8.518;2024-03-29T09:02:25;6.30;;;3.20;;
22904;SDS011;11619;50.140;8.518;2024-03-29T09:04:50;3.75;;;3.00;;
22904;SDS011;11619;50.140;8.518;2024-03-29T09:07:16;5.65;;;3.28;;
22904;SDS011;11619;50.140;8.518;2024-03-29T09:09:42;10.45;;;5.25;;
22904;SDS011;11619;50.140;8.518;2024-03-29T09:12:08;7.40;;;4.63;;
22904;SDS011;11619;50.140;8.518;2024-03-29T09:14:35;7.80;;;4.28;;
22904;SDS011;11619;50.140;8.518;2024-03-29T09:17:00;9.02;;;4.50;;
22904;SDS011;11619;50.140;8.518;2024-03-29T09:19:27;5.80;;;3.85;;
22904;SDS011;11619;50.140;8.518;2024-03-29T09:21:55;5.05;;;3.28;;
22904;SDS011;11619;50.140;8.518;2024-03-29T09:24:21;8.07;;;3.30;;
22904;SDS011;11619;50.140;8.518;2024-03-29T09:26:50;3.70;;;3.13;;
22904;SDS011;11619;50.140;8.518;2024-03-29T09:29:16;5.45;;;2.97;;
22904;SDS011;11619;50.140;8.518;2024-03-29T09:31:43;7.93;;;5.18;;
22904;SDS011;11619;50.140;8.518;2024-03-29T09:34:08;7.40;;;4.32;;
22904;SDS011;11619;50.140;8.518;2024-03-29T09:36:34;9.98;;;4.00;;
22904;SDS011;11619;50.140;8.518;2024-03-29T09:39:00;5.30;;;3.33;;
22904;SDS011;11619;50.140;8.518;2024-03-29T09:41:25;4.10;;;3.25;;
22904;SDS011;11619;50.140;8.518;2024-03-29T09:43:54;8.00;;;4.30;;
22904;SDS011;11619;50.140;8.518;2024-03-29T09:46:21;5.45;;;3.70;;
22904;SDS011;11619;50.140;8.518;2024-03-29T09:48:47;4.55;;;3.13;;
22904;SDS011;11619;50.140;8.518;2024-03-29T09:51:13;5.05;;;3.28;;
22904;SDS011;11619;50.140;8.518;2024-03-29T09:53:40;5.18;;;3.20;;
22904;SDS011;11619;50.140;8.518;2024-03-29T09:56:07;4.07;;;3.00;;
22904;SDS011;11619;50.140;8.518;2024-03-29T09:58:33;4.25;;;2.63;;
22904;SDS011;11619;50.140;8.518;2024-03-29T10:01:03;5.20;;;2.80;;
22904;SDS011;11619;50.140;8.518;2024-03-29T10:03:29;6.82;;;3.30;;
22904;SDS011;11619;50.140;8.518;2024-03-29T10:05:59;4.57;;;2.60;;
22904;SDS011;11619;50.140;8.518;2024-03-29T10:08:26;6.18;;;2.35;;
22904;SDS011;11619;50.140;8.518;2024-03-29T10:10:52;3.88;;;2.20;;
22904;SDS011;11619;50.140;8.518;2024-03-29T10:13:19;4.32;;;2.05;;
22904;SDS011;11619;50.140;8.518;2024-03-29T10:15:46;6.75;;;2.17;;
22904;SDS011;11619;50.140;8.518;2024-03-29T10:18:15;2.17;;;1.60;;
22904;SDS011;11619;50.140;8.518;2024-03-29T10:20:41;7.85;;;3.22;;
22904;SDS011;11619;50.140;8.518;2024-03-29T10:23:06;7.65;;;2.90;;
22904;SDS011;11619;50.140;8.518;2024-03-29T10:25:33;5.38;;;2.75;;
22904;SDS011;11619;50.140;8.518;2024-03-29T10:27:59;3.70;;;1.88;;
22904;SDS011;11619;50.140;8.518;2024-03-29T10:30:28;5.32;;;2.63;;
22904;SDS011;11619;50.140;8.518;2024-03-29T10:32:56;4.00;;;2.00;;
22904;SDS011;11619;50.140;8.518;2024-03-29T10:35:22;3.28;;;2.22;;
22904;SDS011;11619;50.140;8.518;2024-03-29T10:37:48;6.00;;;2.00;;
22904;SDS011;11619;50.140;8.518;2024-03-29T10:40:13;4.53;;;2.25;;
22904;SDS011;11619;50.140;8.518;2024-03-29T10:42:44;14.68;;;2.60;;
22904;SDS011;11619;50.140;8.518;2024-03-29T10:45:10;4.03;;;1.90;;
22904;SDS011;11619;50.140;8.518;2024-03-29T10:47:36;4.15;;;1.67;;
22904;SDS011;11619;50.140;8.518;2024-03-29T10:50:04;3.78;;;2.22;;
22904;SDS011;11619;50.140;8.518;2024-03-29T10:52:30;2.40;;;1.70;;
22904;SDS011;11619;50.140;8.518;2024-03-29T10:54:56;2.55;;;2.13;;
22904;SDS011;11619;50.140;8.518;2024-03-29T11:02:50;2.90;;;2.17;;
22904;SDS011;11619;50.140;8.518;2024-03-29T11:05:21;4.95;;;2.25;;
22904;SDS011;11619;50.140;8.518;2024-03-29T11:07:47;3.33;;;2.15;;
22904;SDS011;11619;50.140;8.518;2024-03-29T11:10:14;4.80;;;2.78;;
22904;SDS011;11619;50.140;8.518;2024-03-29T11:12:45;8.95;;;3.67;;
22904;SDS011;11619;50.140;8.518;2024-03-29T11:15:19;3.85;;;3.03;;
22904;SDS011;11619;50.140;8.518;2024-03-29T11:17:50;3.03;;;2.50;;
22904;SDS011;11619;50.140;8.518;2024-03-29T11:20:16;4.65;;;3.17;;
22904;SDS011;11619;50.140;8.518;2024-03-29T11:22:47;3.03;;;2.38;;
22904;SDS011;11619;50.140;8.518;2024-03-29T11:25:13;2.88;;;2.58;;
22904;SDS011;11619;50.140;8.518;2024-03-29T11:27:39;4.88;;;3.28;;
22904;SDS011;11619;50.140;8.518;2024-03-29T11:30:05;5.45;;;3.28;;
22904;SDS011;11619;50.140;8.518;2024-03-29T11:32:35;5.57;;;3.45;;
22904;SDS011;11619;50.140;8.518;2024-03-29T11:35:02;2.42;;;2.20;;
22904;SDS011;11619;50.140;8.518;2024-03-29T11:37:31;12.52;;;5.45;;
22904;SDS011;11619;50.140;8.518;2024-03-29T11:39:59;3.83;;;2.83;;
22904;SDS011;11619;50.140;8.518;2024-03-29T11:42:35;3.33;;;2.72;;
22904;SDS011;11619;50.140;8.518;2024-03-29T11:45:09;4.32;;;2.63;;
22904;SDS011;11619;50.140;8.518;2024-03-29T11:47:36;3.20;;;2.35;;
22904;SDS011;11619;50.140;8.518;2024-03-29T11:50:01;4.82;;;3.08;;
22904;SDS011;11619;50.140;8.518;2024-03-29T11:52:27;4.35;;;3.03;;
22904;SDS011;11619;50.140;8.518;2024-03-29T11:54:56;4.32;;;2.90;;
22904;SDS011;11619;50.140;8.518;2024-03-29T11:57:21;4.18;;;2.75;;
22904;SDS011;11619;50.140;8.518;2024-03-29T11:59:47;4.95;;;3.30;;
22904;SDS011;11619;50.140;8.518;2024-03-29T12:02:13;7.57;;;3.13;;
22904;SDS011;11619;50.140;8.518;2024-03-29T12:04:40;4.72;;;3.30;;
22904;SDS011;11619;50.140;8.518;2024-03-29T12:07:16;7.50;;;3.22;;
22904;SDS011;11619;50.140;8.518;2024-03-29T12:09:41;3.85;;;2.90;;
22904;SDS011;11619;50.140;8.518;2024-03-29T12:12:07;5.05;;;3.58;;
22904;SDS011;11619;50.140;8.518;2024-03-29T12:14:45;3.63;;;2.80;;
22904;SDS011;11619;50.140;8.518;2024-03-29T12:17:11;3.17;;;2.60;;
22904;SDS011;11619;50.140;8.518;2024-03-29T12:19:37;4.70;;;3.10;;
22904;SDS011;11619;50.140;8.518;2024-03-29T12:22:06;3.50;;;3.20;;
22904;SDS011;11619;50.140;8.518;2024-03-29T12:24:32;3.70;;;2.83;;
22904;SDS011;11619;50.140;8.518;2024-03-29T12:26:58;6.43;;;3.45;;
22904;SDS011;11619;50.140;8.518;2024-03-29T12:29:24;2.97;;;2.45;;
22904;SDS011;11619;50.140;8.518;2024-03-29T12:32:11;3.85;;;2.90;;
22904;SDS011;11619;50.140;8.518;2024-03-29T12:34:35;4.28;;;3.03;;
22904;SDS011;11619;50.140;8.518;2024-03-29T12:37:01;8.50;;;4.80;;
22904;SDS011;11619;50.140;8.518;2024-03-29T12:39:29;5.25;;;3.78;;
22904;SDS011;11619;50.140;8.518;2024-03-29T12:41:58;4.88;;;3.67;;
22904;SDS011;11619;50.140;8.518;2024-03-29T12:44:26;6.55;;;3.55;;
22904;SDS011;11619;50.140;8.518;2024-03-29T12:46:51;5.18;;;3.88;;
22904;SDS011;11619;50.140;8.518;2024-03-29T12:49:17;4.85;;;3.55;;
22904;SDS011;11619;50.140;8.518;2024-03-29T12:51:44;5.90;;;4.40;;
22904;SDS011;11619;50.140;8.518;2024-03-29T12:54:09;4.65;;;3.63;;
22904;SDS011;11619;50.140;8.518;2024-03-29T12:56:35;5.22;;;3.70;;
22904;SDS011;11619;50.140;8.518;2024-03-29T12:59:02;6.13;;;3.83;;
22904;SDS011;11619;50.140;8.518;2024-03-29T13:01:27;5.75;;;3.83;;
22904;SDS011;11619;50.140;8.518;2024-03-29T13:03:53;3.58;;;3.13;;
22904;SDS011;11619;50.140;8.518;2024-03-29T13:06:18;4.28;;;3.60;;
22904;SDS011;11619;50.140;8.518;2024-03-29T13:08:44;6.75;;;4.40;;
22904;SDS011;11619;50.140;8.518;2024-03-29T13:11:10;4.97;;;4.45;;
22904;SDS011;11619;50.140;8.518;2024-03-29T13:13:36;5.60;;;4.60;;
22904;SDS011;11619;50.140;8.518;2024-03-29T13:18:35;4.63;;;4.22;;
22904;SDS011;11619;50.140;8.518;2024-03-29T13:21:01;5.63;;;4.38;;
22904;SDS011;11619;50.140;8.518;2024-03-29T13:23:28;9.13;;;4.70;;
22904;SDS011;11619;50.140;8.518;2024-03-29T13:25:54;7.65;;;4.75;;
22904;SDS011;11619;50.140;8.518;2024-03-29T13:28:21;5.35;;;4.82;;
22904;SDS011;11619;50.140;8.518;2024-03-29T13:30:47;5.13;;;4.30;;
22904;SDS011;11619;50.140;8.518;2024-03-29T13:33:14;7.07;;;4.70;;
22904;SDS011;11619;50.140;8.518;2024-03-29T13:35:41;6.32;;;5.45;;
22904;SDS011;11619;50.140;8.518;2024-03-29T13:38:07;6.75;;;5.53;;
22904;SDS011;11619;50.140;8.518;2024-03-29T13:40:33;5.90;;;5.32;;
22904;SDS011;11619;50.140;8.518;2024-03-29T13:42:59;7.47;;;5.13;;
22904;SDS011;11619;50.140;8.518;2024-03-29T13:45:25;5.55;;;5.00;;
22904;SDS011;11619;50.140;8.518;2024-03-29T13:47:53;6.43;;;4.75;;
22904;SDS011;11619;50.140;8.518;2024-03-29T13:50:19;5.30;;;4.45;;
22904;SDS011;11619;50.140;8.518;2024-03-29T13:52:46;6.00;;;3.88;;
22904;SDS011;11619;50.140;8.518;2024-03-29T13:55:11;5.07;;;4.25;;
22904;SDS011;11619;50.140;8.518;2024-03-29T13:57:37;4.85;;;3.70;;
22904;SDS011;11619;50.140;8.518;2024-03-29T14:00:03;5.13;;;4.20;;
22904;SDS011;11619;50.140;8.518;2024-03-29T14:02:31;5.00;;;4.47;;
22904;SDS011;11619;50.140;8.518;2024-03-29T14:04:57;5.22;;;4.63;;
22904;SDS011;11619;50.140;8.518;2024-03-29T14:07:23;7.70;;;4.57;;
22904;SDS011;11619;50.140;8.518;2024-03-29T14:09:52;13.45;;;6.78;;
22904;SDS011;11619;50.140;8.518;2024-03-29T14:12:18;7.30;;;5.95;;
22904;SDS011;11619;50.140;8.518;2024-03-29T14:14:46;5.88;;;4.68;;
22904;SDS011;11619;50.140;8.518;2024-03-29T14:17:14;5.40;;;4.78;;
22904;SDS011;11619;50.140;8.518;2024-03-29T14:19:39;4.43;;;4.03;;
22904;SDS011;11619;50.140;8.518;2024-03-29T14:22:05;5.22;;;4.15;;
22904;SDS011;11619;50.140;8.518;2024-03-29T14:24:32;6.72;;;5.15;;
22904;SDS011;11619;50.140;8.518;2024-03-29T14:27:01;8.48;;;4.57;;
22904;SDS011;11619;50.140;8.518;2024-03-29T14:29:28;7.28;;;4.70;;
22904;SDS011;11619;50.140;8.518;2024-03-29T14:31:54;7.20;;;4.60;;
22904;SDS011;11619;50.140;8.518;2024-03-29T14:34:20;6.75;;;4.43;;
22904;SDS011;11619;50.140;8.518;2024-03-29T14:36:46;5.32;;;4.47;;
22904;SDS011;11619;50.140;8.518;2024-03-29T14:39:11;5.00;;;4.18;;
22904;SDS011;11619;50.140;8.518;2024-03-29T14:41:41;7.70;;;4.97;;
22904;SDS011;11619;50.140;8.518;2024-03-29T14:44:07;5.93;;;4.95;;
22904;SDS011;11619;50.140;8.518;2024-03-29T14:46:33;7.20;;;5.00;;
22904;SDS011;11619;50.140;8.518;2024-03-29T14:49:00;6.47;;;4.35;;
22904;SDS011;11619;50.140;8.518;2024-03-29T14:51:26;8.07;;;4.65;;
22904;SDS011;11619;50.140;8.518;2024-03-29T14:53:53;7.80;;;5.75;;
22904;SDS011;11619;50.140;8.518;2024-03-29T14:56:19;6.70;;;5.00;;
22904;SDS011;11619;50.140;8.518;2024-03-29T14:58:45;6.70;;;4.90;;
22904;SDS011;11619;50.140;8.518;2024-03-29T15:01:12;7.45;;;5.13;;
22904;SDS011;11619;50.140;8.518;2024-03-29T15:03:37;7.30;;;4.63;;
22904;SDS011;11619;50.140;8.518;2024-03-29T15:06:03;5.80;;;4.63;;
22904;SDS011;11619;50.140;8.518;2024-03-29T15:08:29;5.57;;;4.45;;
22904;SDS011;11619;50.140;8.518;2024-03-29T15:10:56;10.93;;;4.80;;
22904;SDS011;11619;50.140;8.518;2024-03-29T15:13:32;7.30;;;4.72;;
22904;SDS011;11619;50.140;8.518;2024-03-29T15:15:58;5.85;;;5.20;;
22904;SDS011;11619;50.140;8.518;2024-03-29T15:18:25;5.80;;;4.93;;